createdAt,value
2022-09-13T03:27:57.155Z,4.00
2022-09-13T03:30:25.077Z,3.57
2022-09-13T03:33:01.475Z,3.77
2022-09-13T03:35:38.782Z,3.37
2022-09-13T03:38:11.312Z,3.80
2022-09-13T03:40:45.731Z,3.37
2022-09-13T03:43:19.317Z,3.60
2022-09-13T03:45:50.738Z,3.77
2022-09-13T03:48:20.307Z,3.60
2022-09-13T03:50:49.816Z,3.10
2022-09-13T03:53:22.031Z,3.30
2022-09-13T03:55:49.748Z,3.53
2022-09-13T03:58:21.186Z,3.20
2022-09-13T04:00:49.512Z,3.20
2022-09-13T04:03:17.400Z,3.30
2022-09-13T04:05:45.118Z,3.30
2022-09-13T04:08:12.932Z,3.37
2022-09-13T04:10:40.681Z,3.33
2022-09-13T04:13:08.829Z,3.50
2022-09-13T04:15:37.871Z,3.40
2022-09-13T04:18:05.788Z,3.37
2022-09-13T04:20:33.495Z,3.80
2022-09-13T04:23:01.196Z,3.87
2022-09-13T04:25:28.934Z,3.73
2022-09-13T04:27:58.124Z,3.50
2022-09-13T04:30:25.794Z,3.57
2022-09-13T04:32:56.308Z,3.70
2022-09-13T04:35:24.061Z,3.83
2022-09-13T04:37:51.736Z,3.67
2022-09-13T04:40:20.041Z,3.73
2022-09-13T04:42:47.745Z,3.93
2022-09-13T04:45:15.520Z,3.97
2022-09-13T04:47:43.547Z,22.43
2022-09-13T04:50:12.615Z,10.17
2022-09-13T04:52:40.387Z,5.40
2022-09-13T04:55:08.794Z,5.50
2022-09-13T04:57:36.442Z,5.83
2022-09-13T05:00:05.103Z,5.50
2022-09-13T05:02:32.967Z,4.97
2022-09-13T05:05:00.711Z,4.60
2022-09-13T05:07:29.736Z,5.40
2022-09-13T05:09:57.447Z,5.50
2022-09-13T05:12:25.216Z,5.00
2022-09-13T05:14:52.882Z,5.40
2022-09-13T05:17:21.668Z,5.10
2022-09-13T05:19:49.911Z,4.50
2022-09-13T05:22:17.578Z,4.80
2022-09-13T05:24:46.671Z,4.37
2022-09-13T05:27:14.386Z,4.33
2022-09-13T05:29:42.129Z,4.40
2022-09-13T05:32:10.041Z,4.80
2022-09-13T05:34:37.860Z,5.27
2022-09-13T05:37:05.671Z,4.83
2022-09-13T05:39:54.011Z,4.60
2022-09-13T05:42:22.473Z,4.53
2022-09-13T05:44:50.124Z,5.33
2022-09-13T05:47:17.848Z,5.70
2022-09-13T05:50:08.788Z,6.70
2022-09-13T05:52:33.199Z,6.30
2022-09-13T05:55:00.859Z,4.93
2022-09-13T05:57:29.926Z,6.27
2022-09-13T05:59:57.604Z,4.83
2022-09-13T06:02:25.450Z,4.83
2022-09-13T06:04:53.166Z,4.70
2022-09-13T06:07:20.838Z,5.00
2022-09-13T06:09:48.563Z,4.70
2022-09-13T06:12:16.255Z,4.50
2022-09-13T06:14:45.308Z,4.33
2022-09-13T06:17:13.016Z,4.37
2022-09-13T06:19:40.755Z,4.07
2022-09-13T06:22:08.583Z,4.00
2022-09-13T06:24:37.483Z,3.83
2022-09-13T06:27:05.830Z,3.60
2022-09-13T06:29:33.584Z,3.40
2022-09-13T06:32:02.964Z,3.47
2022-09-13T06:34:31.570Z,3.07
2022-09-13T06:36:59.491Z,3.00
2022-09-13T06:39:27.128Z,3.30
2022-09-13T06:41:54.795Z,3.00
2022-09-13T06:44:34.507Z,3.03
2022-09-13T06:47:03.624Z,2.97
2022-09-13T06:49:31.564Z,2.73
2022-09-13T06:51:59.301Z,2.60
2022-09-13T06:54:26.960Z,2.43
2022-09-13T06:56:54.679Z,2.50
2022-09-13T06:59:23.047Z,2.40
2022-09-13T07:01:50.935Z,2.30
2022-09-13T07:04:20.315Z,2.00
2022-09-13T07:06:49.773Z,2.10
2022-09-13T07:09:19.656Z,1.90
2022-09-13T07:11:48.435Z,2.00
2022-09-13T07:14:18.167Z,2.07
2022-09-13T07:16:46.959Z,2.07
2022-09-13T07:19:16.670Z,2.10
2022-09-13T07:21:46.141Z,2.00
2022-09-13T07:24:13.844Z,1.90
2022-09-13T07:26:44.540Z,1.87
2022-09-13T07:29:14.800Z,5.27
2022-09-13T07:31:45.199Z,2.40
2022-09-13T07:34:15.491Z,2.07
2022-09-13T07:36:46.755Z,1.80
2022-09-13T07:39:18.164Z,1.60
2022-09-13T07:41:48.311Z,1.53
2022-09-13T07:44:16.182Z,1.60
2022-09-13T07:46:44.445Z,1.70
2022-09-13T07:49:13.514Z,1.60
2022-09-13T07:51:43.164Z,1.53
2022-09-13T07:54:13.932Z,1.60
2022-09-13T07:56:42.262Z,1.73
2022-09-13T07:59:13.503Z,1.50
2022-09-13T08:01:43.128Z,1.53
2022-09-13T08:04:13.113Z,1.43
2022-09-13T08:06:43.291Z,1.57
2022-09-13T08:09:12.923Z,1.70
2022-09-13T08:11:43.994Z,1.57
2022-09-13T08:14:14.361Z,1.70
2022-09-13T08:16:42.159Z,1.50
2022-09-13T08:19:13.356Z,1.50
2022-09-13T08:21:43.501Z,1.57
2022-09-13T08:24:15.729Z,1.60
2022-09-13T08:26:43.658Z,1.80
2022-09-13T08:29:13.221Z,1.60
2022-09-13T08:31:40.993Z,1.60
2022-09-13T08:34:11.335Z,1.50
2022-09-13T08:36:40.982Z,1.60
2022-09-13T08:39:10.281Z,1.50
2022-09-13T08:42:02.359Z,1.50
2022-09-13T08:44:31.857Z,1.93
2022-09-13T08:47:14.012Z,1.53
2022-09-13T08:49:46.271Z,2.00
2022-09-13T08:52:29.372Z,1.90
2022-09-13T08:54:58.407Z,1.70
2022-09-13T08:57:37.363Z,1.80
2022-09-13T09:00:20.793Z,1.83
2022-09-13T09:03:18.795Z,1.73
2022-09-13T09:05:48.978Z,1.80
2022-09-13T09:08:28.863Z,1.87
2022-09-13T09:10:58.123Z,2.00
2022-09-13T09:13:31.350Z,1.57
2022-09-13T09:16:03.102Z,1.80
2022-09-13T09:18:34.210Z,1.90
2022-09-13T09:21:03.979Z,1.93
2022-09-13T09:23:36.627Z,2.00
2022-09-13T09:26:16.760Z,1.80
2022-09-13T09:28:48.394Z,2.67
2022-09-13T09:31:25.895Z,2.20
2022-09-13T09:34:04.796Z,3.60
2022-09-13T09:36:40.299Z,2.60
2022-09-13T09:39:12.813Z,2.00
2022-09-13T09:41:41.064Z,5.10
2022-09-13T09:44:18.698Z,4.00
2022-09-13T09:46:50.980Z,2.60
2022-09-13T09:49:39.871Z,2.17
2022-09-13T09:52:11.338Z,2.10
2022-09-13T09:58:02.514Z,1.80
2022-09-13T10:00:35.311Z,1.60
2022-09-13T10:03:06.487Z,1.80
2022-09-13T10:05:36.216Z,1.50
2022-09-13T10:08:06.800Z,1.70
2022-09-13T10:10:39.129Z,1.50
2022-09-13T10:13:14.010Z,1.58
2022-09-13T10:15:55.242Z,1.50
2022-09-13T10:18:43.363Z,1.50
2022-09-13T10:21:23.743Z,1.30
2022-09-13T10:23:52.315Z,1.33
2022-09-13T10:26:22.025Z,1.30
2022-09-13T10:28:57.843Z,1.40
2022-09-13T10:31:33.161Z,1.55
2022-09-13T10:34:03.786Z,1.50
2022-09-13T10:36:52.230Z,1.58
2022-09-13T10:39:22.532Z,1.70
2022-09-13T10:41:54.123Z,1.90
2022-09-13T10:44:41.957Z,1.30
2022-09-13T10:47:22.025Z,1.48
2022-09-13T10:49:52.948Z,1.20
2022-09-13T10:52:30.944Z,1.20
2022-09-13T10:55:36.277Z,1.35
2022-09-13T10:58:17.806Z,1.20
2022-09-13T11:01:07.470Z,1.35
2022-09-13T11:03:52.815Z,1.40
2022-09-13T11:06:29.695Z,1.30
2022-09-13T11:09:05.256Z,1.40
2022-09-13T11:11:42.169Z,1.40
2022-09-13T11:14:22.947Z,1.40
2022-09-13T11:17:03.750Z,1.27
2022-09-13T11:20:01.491Z,1.25
2022-09-13T11:22:47.820Z,1.13
2022-09-13T11:25:30.997Z,1.40
2022-09-13T11:28:08.561Z,1.30
2022-09-13T11:30:43.333Z,1.30
2022-09-13T11:33:28.787Z,1.42
2022-09-13T11:36:14.513Z,1.42
2022-09-13T11:38:58.273Z,1.25
2022-09-13T11:41:35.416Z,1.30
2022-09-13T11:44:47.553Z,1.13
2022-09-13T11:47:27.691Z,1.48
2022-09-13T11:50:21.010Z,1.13
2022-09-13T11:53:00.897Z,1.20
2022-09-13T11:55:33.904Z,1.17
2022-09-13T11:58:05.235Z,1.17
2022-09-13T12:00:40.500Z,1.20
2022-09-13T12:03:18.190Z,1.00
2022-09-13T12:05:50.203Z,1.38
2022-09-13T12:08:21.400Z,1.10
2022-09-13T12:10:54.229Z,1.05
2022-09-13T12:13:26.264Z,1.05
2022-09-13T12:15:57.135Z,1.20
2022-09-13T12:18:30.302Z,1.20
2022-09-13T12:21:01.995Z,1.20
2022-09-13T12:23:34.619Z,1.20
2022-09-13T12:26:07.661Z,1.40
2022-09-13T12:28:40.934Z,1.30
2022-09-13T12:31:12.389Z,1.00
2022-09-13T12:33:42.223Z,0.98
2022-09-13T12:36:41.144Z,0.98
2022-09-13T12:39:28.890Z,1.27
2022-09-13T12:42:23.063Z,1.10
2022-09-13T12:45:16.446Z,0.90
2022-09-13T12:48:19.120Z,1.30
2022-09-13T12:50:58.737Z,1.05
2022-09-13T12:53:48.091Z,1.10
2022-09-13T12:56:34.138Z,1.13
2022-09-13T12:59:35.847Z,1.10
2022-09-13T13:02:24.505Z,1.10
2022-09-13T13:04:57.182Z,1.10
2022-09-13T13:07:25.929Z,1.20
2022-09-13T13:09:58.653Z,1.10
2022-09-13T13:12:32.857Z,1.20
2022-09-13T13:15:02.341Z,1.20
2022-09-13T13:17:46.333Z,1.08
2022-09-13T13:20:48.229Z,1.00
2022-09-13T13:23:23.451Z,1.20
2022-09-13T13:26:39.439Z,1.25
2022-09-13T13:29:19.398Z,0.98
2022-09-13T13:32:10.067Z,1.10
2022-09-13T13:34:42.209Z,1.13
2022-09-13T13:37:38.077Z,1.20
2022-09-13T13:40:26.378Z,1.05
2022-09-13T13:43:16.532Z,1.40
2022-09-13T13:46:14.301Z,1.20
2022-09-13T13:48:43.389Z,0.93
2022-09-13T13:51:24.554Z,1.00
2022-09-13T13:53:57.066Z,1.05
2022-09-13T13:56:34.832Z,1.05
2022-09-13T13:59:07.601Z,0.90
2022-09-13T14:01:45.275Z,1.17
2022-09-13T14:04:43.088Z,0.75
2022-09-13T14:07:38.288Z,0.90
2022-09-13T14:10:12.272Z,1.23
2022-09-13T14:12:56.968Z,1.10
2022-09-13T14:15:48.633Z,1.00
2022-09-13T14:18:56.422Z,0.90
2022-09-13T14:21:29.407Z,0.80
2022-09-13T14:24:18.978Z,0.90
2022-09-13T14:26:48.705Z,0.93
2022-09-13T14:29:19.822Z,1.00
2022-09-13T14:31:48.918Z,1.00
2022-09-13T14:34:24.550Z,0.90
2022-09-13T14:36:56.468Z,1.27
2022-09-13T14:39:24.907Z,1.05
2022-09-13T14:42:01.401Z,1.00
2022-09-13T14:44:30.217Z,1.02
2022-09-13T14:47:08.314Z,1.10
2022-09-13T14:49:40.713Z,0.90
2022-09-13T14:52:16.139Z,1.20
2022-09-13T14:54:48.545Z,1.05
2022-09-13T14:57:23.952Z,1.20
2022-09-13T14:59:55.648Z,1.10
2022-09-13T15:02:26.393Z,1.20
2022-09-13T15:04:56.630Z,0.98
2022-09-13T15:07:33.194Z,1.00
2022-09-13T15:10:09.456Z,0.80
2022-09-13T15:12:37.558Z,1.10
2022-09-13T15:15:36.047Z,1.23
2022-09-13T15:18:07.519Z,0.98
2022-09-13T15:20:51.623Z,1.17
2022-09-13T15:23:26.042Z,1.13
2022-09-13T15:25:56.050Z,1.00
2022-09-13T15:28:29.150Z,1.48
2022-09-13T15:30:59.049Z,1.30
2022-09-13T15:33:29.356Z,1.40
2022-09-13T15:36:31.927Z,1.10
2022-09-13T15:39:03.511Z,1.20
2022-09-13T15:41:33.978Z,1.17
2022-09-13T15:44:03.044Z,1.05
2022-09-13T15:46:31.684Z,0.98
2022-09-13T15:49:03.848Z,1.10
2022-09-13T15:51:38.163Z,1.30
2022-09-13T15:54:12.987Z,1.02
2022-09-13T15:56:44.302Z,1.10
2022-09-13T15:59:14.584Z,1.13
2022-09-13T16:01:42.453Z,0.90
2022-09-13T16:04:10.423Z,1.05
2022-09-13T16:06:38.526Z,1.30
2022-09-13T16:09:17.104Z,1.27
2022-09-13T16:11:44.843Z,1.45
2022-09-13T16:14:12.537Z,1.13
2022-09-13T16:16:40.545Z,1.10
2022-09-13T16:19:14.392Z,1.20
2022-09-13T16:21:42.218Z,1.38
2022-09-13T16:24:11.500Z,1.17
2022-09-13T16:26:40.242Z,1.13
2022-09-13T16:29:08.267Z,1.10
2022-09-13T16:31:36.158Z,1.00
2022-09-13T16:34:03.942Z,1.05
2022-09-13T16:36:33.924Z,1.00
2022-09-13T16:39:01.751Z,1.40
2022-09-13T16:41:30.806Z,1.65
2022-09-13T16:43:58.543Z,1.70
2022-09-13T16:46:26.906Z,1.80
2022-09-13T16:48:55.476Z,1.25
2022-09-13T16:51:24.034Z,1.50
2022-09-13T16:53:53.426Z,1.20
2022-09-13T16:56:24.160Z,1.50
2022-09-13T16:58:53.833Z,1.60
2022-09-13T17:01:24.591Z,1.20
2022-09-13T17:03:54.982Z,1.30
2022-09-13T17:06:24.848Z,1.40
2022-09-13T17:08:55.312Z,1.48
2022-09-13T17:11:25.867Z,1.58
2022-09-13T17:13:55.999Z,1.50
2022-09-13T17:16:27.346Z,1.40
2022-09-13T17:18:57.149Z,1.50
2022-09-13T17:21:25.576Z,1.80
2022-09-13T17:23:53.701Z,1.50
2022-09-13T17:26:21.507Z,1.85
2022-09-13T17:28:49.707Z,1.42
2022-09-13T17:31:21.862Z,1.20
2022-09-13T17:33:50.285Z,1.60
2022-09-13T17:36:21.053Z,1.50
2022-09-13T17:38:49.123Z,1.50
2022-09-13T17:41:19.036Z,1.50
2022-09-13T17:43:48.100Z,1.60
2022-09-13T17:46:18.692Z,1.70
2022-09-13T17:48:46.623Z,1.58
2022-09-13T17:51:16.646Z,1.67
2022-09-13T17:53:46.317Z,1.85
2022-09-13T17:56:18.696Z,2.28
2022-09-13T17:58:46.679Z,1.95
2022-09-13T18:01:14.809Z,1.80
2022-09-13T18:03:44.142Z,1.83
2022-09-13T18:06:14.364Z,1.80
2022-09-13T18:08:42.840Z,1.80
2022-09-13T18:11:13.922Z,1.53
2022-09-13T18:13:42.993Z,1.70
2022-09-13T18:16:16.101Z,1.83
2022-09-13T18:18:50.342Z,1.70
2022-09-13T18:21:19.727Z,1.67
2022-09-13T18:23:48.728Z,2.03
2022-09-13T18:26:18.567Z,1.70
2022-09-13T18:28:47.201Z,1.60
2022-09-13T18:31:17.241Z,1.77
2022-09-13T18:33:46.127Z,1.70
2022-09-13T18:36:17.044Z,1.90
2022-09-13T18:38:46.287Z,1.93
2022-09-13T18:41:15.836Z,1.97
2022-09-13T18:43:45.858Z,2.07
2022-09-13T18:46:16.064Z,2.10
2022-09-13T18:48:45.297Z,1.87
2022-09-13T18:51:16.341Z,1.83
2022-09-13T18:53:44.669Z,1.70
2022-09-13T18:56:13.943Z,2.00
2022-09-13T18:58:43.239Z,1.90
2022-09-13T19:01:12.703Z,2.00
2022-09-13T19:03:41.832Z,2.00
2022-09-13T19:06:11.406Z,2.00
2022-09-13T19:08:40.946Z,2.03
2022-09-13T19:11:19.327Z,2.37
2022-09-13T19:13:58.383Z,2.07
2022-09-13T19:16:26.382Z,2.10
2022-09-13T19:18:56.283Z,2.20
2022-09-13T19:21:25.969Z,2.20
2022-09-13T19:23:59.922Z,2.30
2022-09-13T19:26:31.889Z,2.07
2022-09-13T19:29:04.473Z,2.23
2022-09-13T19:31:33.726Z,2.10
2022-09-13T19:34:02.981Z,2.53
2022-09-13T19:36:34.216Z,2.10
2022-09-13T19:39:05.990Z,2.33
2022-09-13T19:41:33.969Z,2.20
2022-09-13T19:44:03.742Z,2.20
2022-09-13T19:46:33.915Z,2.10
2022-09-13T19:49:02.870Z,2.37
2022-09-13T19:51:32.431Z,2.20
2022-09-13T19:54:01.529Z,2.20
2022-09-13T19:56:33.072Z,2.23
2022-09-13T19:59:02.407Z,2.17
2022-09-13T20:01:33.441Z,2.20
2022-09-13T20:04:03.117Z,2.20
2022-09-13T20:06:35.726Z,2.40
2022-09-13T20:09:04.080Z,2.43
2022-09-13T20:11:36.636Z,2.50
2022-09-13T20:14:07.562Z,2.30
2022-09-13T20:16:37.817Z,2.50
2022-09-13T20:19:29.673Z,2.37
2022-09-13T20:21:55.757Z,2.47
2022-09-13T20:24:23.865Z,2.43
2022-09-13T20:26:52.951Z,2.27
2022-09-13T20:29:20.675Z,2.20
2022-09-13T20:31:48.411Z,2.50
2022-09-13T20:34:16.612Z,2.60
2022-09-13T20:36:47.136Z,2.40
2022-09-13T20:39:16.224Z,2.90
2022-09-13T20:41:44.442Z,2.23
2022-09-13T20:44:13.646Z,2.50
2022-09-13T20:46:42.779Z,2.50
2022-09-13T20:49:11.651Z,2.27
2022-09-13T20:51:39.854Z,2.47
2022-09-13T20:54:08.260Z,2.50
2022-09-13T20:56:36.721Z,2.40
2022-09-13T20:59:05.715Z,2.30
2022-09-13T21:01:35.190Z,2.30
2022-09-13T21:04:03.867Z,2.30
2022-09-13T21:06:33.153Z,2.57
2022-09-13T21:09:00.288Z,2.60
2022-09-13T21:11:32.774Z,2.50
2022-09-13T21:14:02.977Z,2.50
2022-09-13T21:16:35.547Z,2.83
2022-09-13T21:19:03.346Z,2.50
2022-09-13T21:21:32.406Z,2.60
2022-09-13T21:24:02.127Z,2.60
2022-09-13T21:26:30.135Z,2.60
2022-09-13T21:29:00.264Z,2.43
2022-09-13T21:31:30.241Z,2.40
2022-09-13T21:34:00.864Z,2.50
2022-09-13T21:36:29.773Z,2.67
2022-09-13T21:38:57.836Z,2.30
2022-09-13T21:41:27.341Z,2.50
2022-09-13T21:43:55.419Z,2.87
2022-09-13T21:46:25.464Z,2.60
2022-09-13T21:48:55.528Z,2.70
2022-09-13T21:51:26.236Z,2.70
2022-09-13T21:53:58.754Z,2.30
2022-09-13T21:56:29.063Z,2.90
2022-09-13T21:58:59.209Z,3.10
2022-09-13T22:01:28.954Z,3.37
2022-09-13T22:03:57.887Z,3.57
2022-09-13T22:06:32.627Z,3.20
2022-09-13T22:09:03.388Z,3.30
2022-09-13T22:11:33.181Z,3.30
2022-09-13T22:14:02.306Z,3.63
2022-09-13T22:16:31.925Z,3.37
2022-09-13T22:19:06.706Z,3.37
2022-09-13T22:21:39.895Z,3.37
2022-09-13T22:24:09.690Z,3.73
2022-09-13T22:26:39.595Z,3.27
2022-09-13T22:29:08.699Z,3.57
2022-09-13T22:31:38.867Z,3.90
2022-09-13T22:34:07.815Z,3.20
2022-09-13T22:36:35.682Z,3.67
2022-09-13T22:39:05.347Z,3.00
2022-09-13T22:41:34.739Z,3.13
2022-09-13T22:44:03.449Z,3.00
2022-09-13T22:46:32.890Z,2.63
2022-09-13T22:49:01.617Z,2.90
2022-09-13T22:51:29.688Z,2.70
2022-09-13T22:53:58.319Z,2.90
2022-09-13T22:56:29.155Z,2.97
2022-09-13T22:58:58.492Z,3.23
2022-09-13T23:01:27.241Z,3.13
2022-09-13T23:03:55.350Z,3.30
2022-09-13T23:06:24.590Z,3.47
2022-09-13T23:08:53.896Z,3.33
2022-09-13T23:11:22.892Z,3.60
2022-09-13T23:13:54.064Z,3.97
2022-09-13T23:16:23.969Z,3.40
2022-09-13T23:18:52.971Z,3.40
2022-09-13T23:21:22.382Z,3.80
2022-09-13T23:23:50.499Z,3.60
2022-09-13T23:26:20.384Z,3.90
2022-09-13T23:28:52.199Z,4.07
2022-09-13T23:31:23.025Z,3.77
2022-09-13T23:33:53.404Z,3.90
2022-09-13T23:36:23.273Z,3.40
2022-09-13T23:38:52.702Z,4.50
2022-09-13T23:41:21.077Z,4.60
2022-09-13T23:43:49.492Z,3.67
2022-09-13T23:46:17.646Z,4.13
2022-09-13T23:48:47.051Z,3.50
2022-09-13T23:51:18.813Z,3.60
2022-09-13T23:53:47.252Z,3.73
2022-09-13T23:56:16.718Z,3.97
2022-09-13T23:58:44.695Z,3.87
